Time;durP1;ratioP1;P1;durP2;ratioP2;P2;SDS_P1;SDS_P2;PMS_P1;PMS_P2;Temp;Humidity;BMP_temperature;BMP_pressure;BME280_temperature;BME280_humidity;BME280_pressure;Samples;Min_cycle;Max_cycle;Signal;HPM_P1;HPM_P2
2022/08/14 00:00:15;;;;;;;426.88;255.75;;;;;;;;;;5000981;28;20616;-48
2022/08/14 00:02:41;;;;;;;450.30;260.88;;;;;;;;;;5002690;28;20217;-48
2022/08/14 00:05:08;;;;;;;412.52;244.55;;;;;;;;;;4999348;28;20228;-48
2022/08/14 00:07:34;;;;;;;433.45;255.15;;;;;;;;;;5000327;28;20212;-47
2022/08/14 00:10:01;;;;;;;465.73;270.25;;;;;;;;;;5005890;28;20223;-48
2022/08/14 00:12:27;;;;;;;366.05;227.55;;;;;;;;;;4999045;28;20530;-48
2022/08/14 00:14:53;;;;;;;429.10;251.98;;;;;;;;;;5004827;28;20188;-48
2022/08/14 00:17:19;;;;;;;413.65;248.50;;;;;;;;;;5003448;28;20308;-48
2022/08/14 00:19:45;;;;;;;458.15;265.30;;;;;;;;;;5004274;28;20292;-48
2022/08/14 00:22:14;;;;;;;405.08;238.75;;;;;;;;;;5008584;28;20318;-48
2022/08/14 00:24:40;;;;;;;459.08;267.13;;;;;;;;;;5006406;28;20224;-48
2022/08/14 00:27:06;;;;;;;457.25;266.23;;;;;;;;;;4996069;28;20845;-48
2022/08/14 00:29:32;;;;;;;461.08;263.70;;;;;;;;;;4995291;28;20773;-48
2022/08/14 00:31:58;;;;;;;394.27;236.55;;;;;;;;;;5005092;28;20234;-48
2022/08/14 00:34:24;;;;;;;390.30;236.70;;;;;;;;;;5008001;28;20221;-48
2022/08/14 00:36:49;;;;;;;466.00;273.77;;;;;;;;;;5003512;28;20608;-48
2022/08/14 00:39:16;;;;;;;418.98;245.80;;;;;;;;;;4999768;28;20211;-48
2022/08/14 00:41:42;;;;;;;416.50;241.10;;;;;;;;;;4998085;28;20331;-47
2022/08/14 00:44:08;;;;;;;387.55;232.82;;;;;;;;;;5005864;28;20219;-48
2022/08/14 00:46:34;;;;;;;447.33;264.30;;;;;;;;;;5002616;28;20756;-47
2022/08/14 00:49:00;;;;;;;421.92;252.77;;;;;;;;;;4993502;28;22509;-47
2022/08/14 00:51:28;;;;;;;426.05;253.07;;;;;;;;;;4996205;28;20623;-48
2022/08/14 00:53:54;;;;;;;409.90;245.23;;;;;;;;;;5002356;28;20220;-48
2022/08/14 00:56:20;;;;;;;402.13;235.02;;;;;;;;;;5001084;28;20294;-48
2022/08/14 00:58:46;;;;;;;415.88;239.63;;;;;;;;;;4995319;28;20306;-48
2022/08/14 01:01:13;;;;;;;430.92;251.75;;;;;;;;;;5002796;28;20351;-48
2022/08/14 01:03:39;;;;;;;441.00;256.73;;;;;;;;;;5005598;28;20316;-48
2022/08/14 01:06:09;;;;;;;418.23;248.23;;;;;;;;;;4999606;28;20431;-47
2022/08/14 01:08:37;;;;;;;417.27;249.60;;;;;;;;;;4997320;28;20487;-48
2022/08/14 01:11:03;;;;;;;400.60;240.48;;;;;;;;;;5005774;28;20665;-48
2022/08/14 01:13:31;;;;;;;403.17;231.45;;;;;;;;;;5005307;28;20216;-47
2022/08/14 01:15:58;;;;;;;425.45;245.55;;;;;;;;;;5002474;28;20681;-48
2022/08/14 01:21:14;;;;;;;424.05;246.38;;;;;;;;;;4994076;28;20208;-48
2022/08/14 01:23:45;;;;;;;427.63;247.40;;;;;;;;;;5000377;28;20645;-48
2022/08/14 01:26:11;;;;;;;414.05;247.20;;;;;;;;;;4998381;28;20217;-48
2022/08/14 01:28:38;;;;;;;401.80;234.25;;;;;;;;;;5002903;28;20576;-48
2022/08/14 01:31:07;;;;;;;394.92;231.88;;;;;;;;;;4997174;28;20335;-48
2022/08/14 01:33:37;;;;;;;368.00;217.65;;;;;;;;;;5000588;28;20223;-48
2022/08/14 01:36:03;;;;;;;451.45;254.27;;;;;;;;;;4998725;28;20211;-48
2022/08/14 01:38:33;;;;;;;448.98;263.60;;;;;;;;;;4993168;28;20219;-48
2022/08/14 01:41:03;;;;;;;426.30;252.50;;;;;;;;;;5000452;28;20955;-48
2022/08/14 01:43:38;;;;;;;377.08;225.57;;;;;;;;;;5006621;28;20231;-48
2022/08/14 01:46:05;;;;;;;408.27;239.38;;;;;;;;;;5000361;28;20218;-48
2022/08/14 01:48:32;;;;;;;378.25;233.65;;;;;;;;;;5002560;28;20228;-47
2022/08/14 01:51:01;;;;;;;382.40;237.65;;;;;;;;;;5004529;28;20316;-48
2022/08/14 01:53:27;;;;;;;399.65;245.80;;;;;;;;;;4999665;28;20705;-48
2022/08/14 01:55:56;;;;;;;450.48;267.85;;;;;;;;;;4995913;28;20667;-48
2022/08/14 01:58:24;;;;;;;432.27;259.27;;;;;;;;;;5000286;28;20216;-48
2022/08/14 02:00:53;;;;;;;429.38;258.33;;;;;;;;;;4998494;28;20348;-48
2022/08/14 02:03:19;;;;;;;383.80;236.15;;;;;;;;;;5001055;28;20204;-47
2022/08/14 02:05:45;;;;;;;455.83;270.42;;;;;;;;;;5006553;28;20195;-48
2022/08/14 02:08:11;;;;;;;422.77;251.68;;;;;;;;;;4999664;28;20307;-48
2022/08/14 02:10:39;;;;;;;424.98;253.30;;;;;;;;;;5000719;28;20965;-48
2022/08/14 02:13:07;;;;;;;416.00;249.07;;;;;;;;;;4999980;28;20339;-48
2022/08/14 02:15:34;;;;;;;448.30;264.20;;;;;;;;;;5007844;28;20403;-48
2022/08/14 02:18:00;;;;;;;485.05;279.30;;;;;;;;;;4996438;28;20198;-48
2022/08/14 02:20:30;;;;;;;421.85;254.43;;;;;;;;;;5005115;28;20302;-48
2022/08/14 02:22:56;;;;;;;435.67;261.77;;;;;;;;;;4999479;28;20479;-48
2022/08/14 02:25:23;;;;;;;396.38;239.35;;;;;;;;;;5010650;28;20299;-48
2022/08/14 02:27:48;;;;;;;404.60;244.85;;;;;;;;;;5008204;28;20281;-47
2022/08/14 02:30:15;;;;;;;385.27;236.20;;;;;;;;;;5002396;28;20184;-48
2022/08/14 02:32:41;;;;;;;433.60;260.15;;;;;;;;;;5005183;28;20216;-47
2022/08/14 02:35:12;;;;;;;412.63;243.80;;;;;;;;;;5001188;28;20219;-48
2022/08/14 02:37:39;;;;;;;415.27;238.57;;;;;;;;;;5002664;28;20228;-48
2022/08/14 02:40:05;;;;;;;405.45;237.95;;;;;;;;;;5011698;28;20315;-48
2022/08/14 02:42:33;;;;;;;433.27;247.23;;;;;;;;;;5006167;28;20199;-48
2022/08/14 02:44:59;;;;;;;425.08;258.92;;;;;;;;;;5013790;28;20212;-48
2022/08/14 02:47:27;;;;;;;392.48;247.18;;;;;;;;;;5010685;28;20220;-48
2022/08/14 02:49:53;;;;;;;448.08;270.10;;;;;;;;;;5004491;28;20219;-48
2022/08/14 02:52:19;;;;;;;423.23;253.70;;;;;;;;;;4998920;28;20822;-48
2022/08/14 02:54:45;;;;;;;422.95;253.07;;;;;;;;;;5001160;28;20227;-51
2022/08/14 02:57:12;;;;;;;370.95;231.07;;;;;;;;;;5011519;28;20395;-49
2022/08/14 02:59:39;;;;;;;493.95;290.27;;;;;;;;;;4991533;28;20898;-48
2022/08/14 03:02:06;;;;;;;433.40;258.77;;;;;;;;;;5006011;28;20290;-48
2022/08/14 03:04:32;;;;;;;430.50;252.30;;;;;;;;;;4987683;28;20228;-48
2022/08/14 03:06:58;;;;;;;439.77;262.33;;;;;;;;;;5006314;28;20235;-47
2022/08/14 03:09:24;;;;;;;442.60;263.65;;;;;;;;;;4997190;28;20613;-48
2022/08/14 03:11:51;;;;;;;453.65;272.00;;;;;;;;;;5005498;28;20194;-48
2022/08/14 03:14:17;;;;;;;436.90;255.55;;;;;;;;;;5000130;28;20213;-48
2022/08/14 03:16:44;;;;;;;427.08;253.00;;;;;;;;;;4999301;28;20645;-48
2022/08/14 03:19:10;;;;;;;409.00;252.30;;;;;;;;;;5003591;28;20208;-48
2022/08/14 03:21:38;;;;;;;474.05;272.83;;;;;;;;;;5003011;28;20314;-47
2022/08/14 03:24:10;;;;;;;410.50;242.13;;;;;;;;;;5010576;28;20200;-48
2022/08/14 03:26:46;;;;;;;421.60;252.90;;;;;;;;;;5007374;28;20300;-48
2022/08/14 03:29:19;;;;;;;389.50;235.13;;;;;;;;;;5005203;28;20592;-48
2022/08/14 03:31:45;;;;;;;394.67;240.32;;;;;;;;;;5012577;28;20238;-47
2022/08/14 03:34:11;;;;;;;420.52;257.25;;;;;;;;;;5009235;28;20249;-48
2022/08/14 03:36:39;;;;;;;401.55;242.98;;;;;;;;;;5012110;28;20335;-48
2022/08/14 03:39:06;;;;;;;403.48;231.80;;;;;;;;;;5016092;28;20690;-48
2022/08/14 03:41:32;;;;;;;399.60;232.63;;;;;;;;;;5007433;28;20278;-48
2022/08/14 03:44:00;;;;;;;382.98;236.25;;;;;;;;;;5003425;28;20225;-48
2022/08/14 03:46:26;;;;;;;411.20;234.30;;;;;;;;;;5004086;28;20216;-48
2022/08/14 03:48:56;;;;;;;386.98;224.82;;;;;;;;;;5000825;28;20208;-48
2022/08/14 03:51:26;;;;;;;404.20;230.98;;;;;;;;;;5008377;28;20200;-47
2022/08/14 03:53:53;;;;;;;414.83;234.82;;;;;;;;;;5011771;28;20211;-48
2022/08/14 03:56:19;;;;;;;440.63;248.13;;;;;;;;;;5005120;28;21318;-48
2022/08/14 03:58:46;;;;;;;397.05;224.43;;;;;;;;;;5008474;28;20251;-48
2022/08/14 04:01:13;;;;;;;409.92;237.52;;;;;;;;;;5009181;28;20722;-48
2022/08/14 04:03:39;;;;;;;464.48;259.38;;;;;;;;;;4997754;28;20224;-48
2022/08/14 04:06:07;;;;;;;417.25;233.45;;;;;;;;;;5011168;28;20887;-48
2022/08/14 04:08:37;;;;;;;420.90;243.48;;;;;;;;;;5007082;28;20219;-48
2022/08/14 04:11:03;;;;;;;423.33;240.20;;;;;;;;;;5008018;28;20219;-48
2022/08/14 04:13:30;;;;;;;407.27;234.20;;;;;;;;;;5006919;28;20573;-48
2022/08/14 04:15:56;;;;;;;409.73;236.50;;;;;;;;;;5005617;28;20240;-48
2022/08/14 04:18:22;;;;;;;392.73;225.02;;;;;;;;;;5012503;28;20633;-48
2022/08/14 04:20:48;;;;;;;389.20;222.75;;;;;;;;;;5007657;28;20181;-48
2022/08/14 04:23:16;;;;;;;452.83;248.48;;;;;;;;;;5007613;28;20373;-48
2022/08/14 04:25:42;;;;;;;487.00;270.80;;;;;;;;;;5005017;28;20218;-48
2022/08/14 04:28:10;;;;;;;412.92;232.77;;;;;;;;;;5005531;28;20220;-48
2022/08/14 04:30:40;;;;;;;411.02;232.25;;;;;;;;;;5003455;28;20535;-48
2022/08/14 04:33:08;;;;;;;;;;;;;;;;;;5006494;28;20559;-48
2022/08/14 04:35:36;;;;;;;406.40;230.50;;;;;;;;;;5000093;28;20478;-48
2022/08/14 04:43:38;;;;;;;402.95;226.55;;;;;;;;;;5003245;28;20232;-48
2022/08/14 04:46:16;;;;;;;420.77;235.73;;;;;;;;;;4999159;28;20212;-47
2022/08/14 04:48:41;;;;;;;425.73;241.55;;;;;;;;;;4998141;28;20216;-48
2022/08/14 04:51:09;;;;;;;420.40;246.88;;;;;;;;;;5005556;28;21730;-48
2022/08/14 04:53:37;;;;;;;399.50;232.10;;;;;;;;;;5001046;28;20666;-48
2022/08/14 04:56:05;;;;;;;416.83;244.60;;;;;;;;;;4999737;28;20460;-48
2022/08/14 04:58:32;;;;;;;403.10;238.40;;;;;;;;;;4996057;28;20216;-48
2022/08/14 05:00:58;;;;;;;399.45;238.52;;;;;;;;;;5007312;28;20229;-49
2022/08/14 05:03:27;;;;;;;397.05;236.20;;;;;;;;;;4999492;28;20537;-48
2022/08/14 05:05:54;;;;;;;432.33;251.82;;;;;;;;;;4994216;28;20832;-48
2022/08/14 05:08:21;;;;;;;410.67;231.25;;;;;;;;;;4998281;28;20223;-49
2022/08/14 05:10:51;;;;;;;394.52;228.40;;;;;;;;;;5004694;28;20291;-49
2022/08/14 05:13:18;;;;;;;386.50;225.32;;;;;;;;;;5008503;28;20217;-49
2022/08/14 05:15:45;;;;;;;428.58;247.68;;;;;;;;;;5009674;28;20946;-49
2022/08/14 05:18:12;;;;;;;424.70;250.75;;;;;;;;;;5007448;28;20173;-49
2022/08/14 05:20:39;;;;;;;442.37;258.00;;;;;;;;;;4998513;28;20283;-50
2022/08/14 05:23:06;;;;;;;427.45;255.15;;;;;;;;;;5005145;28;20219;-51
2022/08/14 05:25:33;;;;;;;;;;;;;;;;;;5015276;28;20607;-50
2022/08/14 05:27:59;;;;;;;;;;;;;;;;;;5003444;28;20201;-50
2022/08/14 05:30:25;;;;;;;;;;;;;;;;;;5008631;28;20208;-51
2022/08/14 05:32:51;;;;;;;;;;;;;;;;;;5008460;28;20696;-50
2022/08/14 05:35:18;;;;;;;;;;;;;;;;;;5004274;28;19954;-51
2022/08/14 05:37:43;;;;;;;;;;;;;;;;;;5012742;28;20329;-51
2022/08/14 05:40:09;;;;;;;;;;;;;;;;;;5008893;28;19954;-50
2022/08/14 05:42:36;;;;;;;;;;;;;;;;;;5009757;28;19941;-50
2022/08/14 05:45:01;;;;;;;;;;;;;;;;;;5008904;28;20472;-51
2022/08/14 05:47:27;;;;;;;;;;;;;;;;;;5008251;28;20021;-50
2022/08/14 05:49:53;;;;;;;;;;;;;;;;;;5006999;28;19949;-50
2022/08/14 05:52:20;;;;;;;;;;;;;;;;;;5014865;28;19950;-51
2022/08/14 05:54:45;;;;;;;;;;;;;;;;;;5006624;28;20045;-51
2022/08/14 05:57:11;;;;;;;;;;;;;;;;;;5006976;28;20139;-50
2022/08/14 05:59:37;;;;;;;;;;;;;;;;;;5013432;28;19955;-51
2022/08/14 06:02:03;;;;;;;;;;;;;;;;;;5011258;28;19952;-51
2022/08/14 06:04:29;;;;;;;;;;;;;;;;;;5005529;28;19957;-51
2022/08/14 06:06:55;;;;;;;;;;;;;;;;;;5007396;28;20392;-51
2022/08/14 06:09:21;;;;;;;;;;;;;;;;;;5011504;28;20032;-51
2022/08/14 06:11:47;;;;;;;;;;;;;;;;;;5005314;28;20393;-50
2022/08/14 06:14:13;;;;;;;;;;;;;;;;;;5004875;28;19980;-51
2022/08/14 06:16:38;;;;;;;;;;;;;;;;;;5005148;28;19950;-51
2022/08/14 06:19:05;;;;;;;;;;;;;;;;;;5003044;28;20002;-50
2022/08/14 06:21:31;;;;;;;;;;;;;;;;;;5009718;28;19956;-51
2022/08/14 06:23:57;;;;;;;;;;;;;;;;;;5009089;28;19949;-50
2022/08/14 06:26:22;;;;;;;;;;;;;;;;;;4980271;28;20059;-51
2022/08/14 06:28:48;;;;;;;;;;;;;;;;;;4993316;28;19960;-50
2022/08/14 06:31:14;;;;;;;;;;;;;;;;;;5003789;28;19968;-51
2022/08/14 06:33:40;;;;;;;;;;;;;;;;;;4994449;28;19987;-50
2022/08/14 06:36:06;;;;;;;;;;;;;;;;;;4995515;28;20612;-51
2022/08/14 06:38:32;;;;;;;;;;;;;;;;;;5006207;28;20295;-51
2022/08/14 06:40:57;;;;;;;;;;;;;;;;;;4995553;28;19974;-51
2022/08/14 06:43:23;;;;;;;;;;;;;;;;;;4997453;28;20650;-51
2022/08/14 06:45:50;;;;;;;;;;;;;;;;;;4998341;28;20380;-51
2022/08/14 06:48:15;;;;;;;;;;;;;;;;;;5001507;28;19945;-50
2022/08/14 06:50:42;;;;;;;;;;;;;;;;;;4997794;28;20496;-50
2022/08/14 06:53:08;;;;;;;;;;;;;;;;;;5008577;28;19955;-51
2022/08/14 06:55:34;;;;;;;;;;;;;;;;;;5007925;28;20028;-50
2022/08/14 06:58:00;;;;;;;;;;;;;;;;;;4994216;28;19972;-52
2022/08/14 07:00:26;;;;;;;;;;;;;;;;;;4994295;28;19945;-49
2022/08/14 07:05:46;;;;;;;;;;;;;;;;;;4998759;28;19977;-51
2022/08/14 07:08:13;;;;;;;;;;;;;;;;;;5000968;28;19953;-50
2022/08/14 07:10:39;;;;;;;;;;;;;;;;;;5002792;28;22636;-50
2022/08/14 07:13:04;;;;;;;;;;;;;;;;;;5006131;28;19952;-50
2022/08/14 07:15:30;;;;;;;;;;;;;;;;;;5000904;28;19947;-49
2022/08/14 07:17:56;;;;;;;;;;;;;;;;;;4995870;28;20274;-49
2022/08/14 07:20:22;;;;;;;;;;;;;;;;;;5002769;28;19997;-50
2022/08/14 07:22:49;;;;;;;;;;;;;;;;;;4997223;28;19953;-49
2022/08/14 07:25:14;;;;;;;;;;;;;;;;;;5000604;28;20047;-49
2022/08/14 07:27:40;;;;;;;;;;;;;;;;;;4994483;28;19959;-50
2022/08/14 07:30:06;;;;;;;;;;;;;;;;;;4991913;28;20340;-49
2022/08/14 07:32:32;;;;;;;;;;;;;;;;;;5000363;28;20055;-50
2022/08/14 07:34:58;;;;;;;;;;;;;;;;;;5001746;28;20042;-49
2022/08/14 07:37:24;;;;;;;;;;;;;;;;;;5011714;28;20079;-50
2022/08/14 07:39:50;;;;;;;;;;;;;;;;;;4991299;28;20040;-50
2022/08/14 07:42:16;;;;;;;;;;;;;;;;;;5002939;28;19941;-49
2022/08/14 07:44:42;;;;;;;;;;;;;;;;;;5016323;28;20384;-50
2022/08/14 07:47:08;;;;;;;;;;;;;;;;;;5008659;28;19953;-50
2022/08/14 07:49:33;;;;;;;;;;;;;;;;;;5004399;28;19949;-50
2022/08/14 07:51:59;;;;;;;;;;;;;;;;;;4992305;28;19955;-49
2022/08/14 07:54:25;;;;;;;;;;;;;;;;;;4991681;28;19952;-49
2022/08/14 07:56:51;;;;;;;;;;;;;;;;;;5004804;28;19944;-49
2022/08/14 07:59:20;;;;;;;;;;;;;;;;;;4994944;28;20043;-49
2022/08/14 08:01:46;;;;;;;;;;;;;;;;;;5003322;28;20141;-50
2022/08/14 08:04:12;;;;;;;;;;;;;;;;;;5005342;28;19964;-50
2022/08/14 08:06:38;;;;;;;;;;;;;;;;;;4998962;28;19987;-50
2022/08/14 08:09:03;;;;;;;;;;;;;;;;;;4999627;28;20026;-49
2022/08/14 08:11:29;;;;;;;;;;;;;;;;;;4999481;28;20291;-49
2022/08/14 08:13:55;;;;;;;;;;;;;;;;;;5000755;28;20431;-49
2022/08/14 08:16:23;;;;;;;;;;;;;;;;;;4992757;28;20706;-49
2022/08/14 08:18:49;;;;;;;;;;;;;;;;;;4992546;28;20346;-50
2022/08/14 08:21:15;;;;;;;;;;;;;;;;;;5000025;28;19988;-50
2022/08/14 08:23:41;;;;;;;;;;;;;;;;;;4997850;28;20051;-50
2022/08/14 08:26:06;;;;;;;;;;;;;;;;;;5001369;28;19956;-49
2022/08/14 08:28:32;;;;;;;;;;;;;;;;;;4996866;28;19998;-49
2022/08/14 08:30:58;;;;;;;;;;;;;;;;;;4992842;28;19960;-49
2022/08/14 08:33:25;;;;;;;;;;;;;;;;;;4995813;28;19949;-49
2022/08/14 08:35:50;;;;;;;;;;;;;;;;;;5003593;28;19952;-50
2022/08/14 08:38:16;;;;;;;;;;;;;;;;;;4992038;28;19952;-49
2022/08/14 08:40:42;;;;;;;;;;;;;;;;;;4993378;28;20087;-49
2022/08/14 08:43:08;;;;;;;;;;;;;;;;;;4987485;28;20124;-49
2022/08/14 08:45:34;;;;;;;;;;;;;;;;;;4994965;28;20094;-50
2022/08/14 08:48:00;;;;;;;;;;;;;;;;;;4995674;28;19944;-49
2022/08/14 08:50:29;;;;;;;;;;;;;;;;;;4996467;28;20322;-49
2022/08/14 08:52:54;;;;;;;;;;;;;;;;;;4992577;28;19956;-49
2022/08/14 08:55:20;;;;;;;;;;;;;;;;;;5008377;28;19952;-50
2022/08/14 08:57:46;;;;;;;;;;;;;;;;;;5009167;28;20002;-49
2022/08/14 09:00:12;;;;;;;;;;;;;;;;;;5013057;28;19956;-50
2022/08/14 09:02:40;;;;;;;;;;;;;;;;;;5011728;28;19953;-50
2022/08/14 09:05:05;;;;;;;;;;;;;;;;;;5017514;28;19952;-49
2022/08/14 09:07:31;;;;;;;;;;;;;;;;;;5007568;28;20625;-50
2022/08/14 09:09:57;;;;;;;;;;;;;;;;;;5016095;28;20284;-50
2022/08/14 09:12:24;;;;;;;;;;;;;;;;;;5013690;28;19940;-51
2022/08/14 09:14:52;;;;;;;394.88;284.27;;;;;;;;;;5016494;28;19944;-50
2022/08/14 09:17:18;;;;;;;374.88;272.63;;;;;;;;;;5008806;28;20214;-51
2022/08/14 09:19:45;;;;;;;395.80;285.77;;;;;;;;;;5008854;28;20357;-51
2022/08/14 09:22:12;;;;;;;380.60;274.75;;;;;;;;;;5013063;28;20604;-50
2022/08/14 09:24:38;;;;;;;;;;;;;;;;;;5016810;28;20224;-50
2022/08/14 09:27:04;;;;;;;385.00;281.80;;;;;;;;;;5012693;28;20156;-49
2022/08/14 09:29:30;;;;;;;376.03;280.70;;;;;;;;;;5012494;28;20245;-50
2022/08/14 09:31:59;;;;;;;375.85;281.50;;;;;;;;;;5014704;28;20258;-51
2022/08/14 09:34:42;;;;;;;375.20;294.77;;;;;;;;;;5013220;28;20220;-50
2022/08/14 09:37:30;;;;;;;373.00;294.83;;;;;;;;;;5019152;28;20216;-50
2022/08/14 09:40:01;;;;;;;377.23;287.23;;;;;;;;;;5015754;28;20239;-50
2022/08/14 09:42:27;;;;;;;;;;;;;;;;;;5013106;28;20239;-50
2022/08/14 09:45:14;;;;;;;369.90;280.40;;;;;;;;;;5027612;28;20214;-50
2022/08/14 09:47:47;;;;;;;380.83;298.75;;;;;;;;;;5017528;28;20204;-50
2022/08/14 09:50:28;;;;;;;381.17;308.58;;;;;;;;;;5015298;28;20216;-51
2022/08/14 09:52:56;;;;;;;394.00;320.00;;;;;;;;;;5011745;28;20506;-50
2022/08/14 09:55:23;;;;;;;387.00;312.85;;;;;;;;;;5019395;28;20640;-51
2022/08/14 09:57:50;;;;;;;385.13;311.25;;;;;;;;;;5011849;28;20216;-51
2022/08/14 10:00:17;;;;;;;378.42;296.40;;;;;;;;;;5014488;28;20208;-50
2022/08/14 10:02:55;;;;;;;391.08;308.60;;;;;;;;;;5003282;28;20701;-50
2022/08/14 10:05:29;;;;;;;439.98;331.05;;;;;;;;;;5013279;28;20227;-50
2022/08/14 10:07:55;;;;;;;390.25;308.75;;;;;;;;;;5015353;28;20292;-51
2022/08/14 10:10:31;;;;;;;428.48;326.77;;;;;;;;;;5013456;28;20212;-48
2022/08/14 10:12:58;;;;;;;413.35;323.88;;;;;;;;;;5019163;28;20649;-51
2022/08/14 10:15:25;;;;;;;416.25;333.00;;;;;;;;;;5019543;28;20592;-51
2022/08/14 10:18:06;;;;;;;393.80;302.52;;;;;;;;;;5021431;28;20255;-51
2022/08/14 10:20:33;;;;;;;402.63;315.13;;;;;;;;;;5017514;28;20588;-50
2022/08/14 10:23:08;;;;;;;394.42;312.50;;;;;;;;;;5025059;28;20219;-51
2022/08/14 10:26:03;;;;;;;388.85;314.42;;;;;;;;;;5014308;28;20236;-50
2022/08/14 10:28:37;;;;;;;382.95;300.48;;;;;;;;;;5017258;28;20224;-51
2022/08/14 10:31:03;;;;;;;390.50;320.55;;;;;;;;;;5016046;28;20227;-50
2022/08/14 10:33:30;;;;;;;505.60;364.00;;;;;;;;;;5005210;28;20209;-50
2022/08/14 10:35:59;;;;;;;434.10;341.10;;;;;;;;;;4992548;28;20187;-49
2022/08/14 10:38:35;;;;;;;446.40;344.70;;;;;;;;;;5002663;28;20549;-50
2022/08/14 10:41:14;;;;;;;448.75;342.58;;;;;;;;;;5003138;28;20211;-50
2022/08/14 10:43:41;;;;;;;401.40;310.77;;;;;;;;;;4997196;28;20427;-50
2022/08/14 10:46:19;;;;;;;406.45;314.88;;;;;;;;;;4996624;28;20220;-50
2022/08/14 10:48:55;;;;;;;376.65;301.63;;;;;;;;;;4995097;28;20234;-50
2022/08/14 10:51:25;;;;;;;421.30;332.73;;;;;;;;;;5003876;28;20587;-50
2022/08/14 10:53:55;;;;;;;448.55;349.98;;;;;;;;;;4997186;28;20280;-50
2022/08/14 10:56:29;;;;;;;451.75;346.48;;;;;;;;;;4998400;28;20216;-50
2022/08/14 10:59:06;;;;;;;443.80;339.52;;;;;;;;;;4997911;28;20278;-50
2022/08/14 11:01:33;;;;;;;508.77;373.95;;;;;;;;;;4995433;28;20208;-50
2022/08/14 11:04:00;;;;;;;417.02;329.02;;;;;;;;;;5003585;28;20308;-50
2022/08/14 11:06:26;;;;;;;418.42;339.95;;;;;;;;;;4999763;28;20189;-50
2022/08/14 11:08:53;;;;;;;433.33;357.60;;;;;;;;;;5002960;28;20812;-50
2022/08/14 11:11:21;;;;;;;488.70;382.60;;;;;;;;;;4996803;28;20224;-50
2022/08/14 11:13:49;;;;;;;453.88;374.98;;;;;;;;;;4990490;28;20265;-49
2022/08/14 11:16:15;;;;;;;407.63;342.67;;;;;;;;;;5002976;28;20208;-49
2022/08/14 11:18:44;;;;;;;451.40;361.65;;;;;;;;;;5008305;28;20228;-49
2022/08/14 11:21:09;;;;;;;;;;;;;;;;;;5002648;28;20722;-48
2022/08/14 11:23:37;;;;;;;;;;;;;;;;;;4997152;28;20234;-49
2022/08/14 11:26:05;;;;;;;;;;;;;;;;;;5003504;28;20015;-49
2022/08/14 11:28:32;;;;;;;437.75;335.70;;;;;;;;;;5005711;28;20188;-48
2022/08/14 11:31:00;;;;;;;450.75;343.25;;;;;;;;;;4998543;28;20467;-48
2022/08/14 11:33:29;;;;;;;;;;;;;;;;;;5004114;28;19989;-49
2022/08/14 11:35:57;;;;;;;429.25;352.52;;;;;;;;;;5015600;28;20157;-47
2022/08/14 11:38:24;;;;;;;402.52;341.98;;;;;;;;;;5011150;28;20412;-49
2022/08/14 11:40:50;;;;;;;392.92;332.98;;;;;;;;;;5013546;28;20221;-49
2022/08/14 11:43:17;;;;;;;399.02;335.83;;;;;;;;;;5012417;28;20311;-49
2022/08/14 11:45:47;;;;;;;446.23;357.20;;;;;;;;;;5011356;28;20305;-49
2022/08/14 11:48:17;;;;;;;410.83;341.35;;;;;;;;;;5012175;28;20204;-49
2022/08/14 11:50:44;;;;;;;407.08;338.33;;;;;;;;;;5012728;28;20267;-47
2022/08/14 11:53:19;;;;;;;399.20;339.13;;;;;;;;;;5007068;28;20221;-47
2022/08/14 11:55:45;;;;;;;446.27;360.48;;;;;;;;;;5018585;28;20317;-47
2022/08/14 11:58:12;;;;;;;409.60;355.83;;;;;;;;;;5015913;28;20668;-46
2022/08/14 12:00:52;;;;;;;417.77;369.35;;;;;;;;;;5012338;28;20220;-47
2022/08/14 12:03:18;;;;;;;406.23;348.65;;;;;;;;;;5008182;28;20228;-46
2022/08/14 12:05:45;;;;;;;444.88;367.65;;;;;;;;;;5015918;28;20188;-46
2022/08/14 12:08:12;;;;;;;413.02;367.92;;;;;;;;;;5017187;28;20466;-47
2022/08/14 12:10:39;;;;;;;415.92;358.10;;;;;;;;;;5008756;28;20217;-47
2022/08/14 12:13:13;;;;;;;474.08;391.48;;;;;;;;;;5014050;28;20217;-46
2022/08/14 12:15:40;;;;;;;460.75;389.48;;;;;;;;;;4997169;28;20212;-47
2022/08/14 12:18:06;;;;;;;426.60;361.42;;;;;;;;;;5001881;28;20291;-47
2022/08/14 12:20:35;;;;;;;437.25;366.45;;;;;;;;;;5002566;28;20331;-46
2022/08/14 12:23:01;;;;;;;431.42;379.45;;;;;;;;;;5002019;28;20303;-47
2022/08/14 12:25:28;;;;;;;454.98;386.17;;;;;;;;;;4998591;28;20744;-47
2022/08/14 12:27:55;;;;;;;440.63;377.63;;;;;;;;;;4999397;28;20242;-46
2022/08/14 12:30:31;;;;;;;461.15;383.05;;;;;;;;;;5005203;28;20238;-48
2022/08/14 12:32:57;;;;;;;453.77;395.92;;;;;;;;;;4999735;28;20259;-48
2022/08/14 12:35:23;;;;;;;432.05;379.38;;;;;;;;;;5007395;28;20217;-48
2022/08/14 12:37:50;;;;;;;442.55;389.02;;;;;;;;;;5003238;28;20216;-48
2022/08/14 12:40:16;;;;;;;;;;;;;;;;;;5009553;28;20228;-49
2022/08/14 12:42:45;;;;;;;;;;;;;;;;;;5009187;28;20650;-48
2022/08/14 12:45:11;;;;;;;;;;;;;;;;;;5003566;28;20593;-48
2022/08/14 12:47:38;;;;;;;;;;;;;;;;;;5001681;28;19975;-47
2022/08/14 12:50:04;;;;;;;;;;;;;;;;;;4999854;28;19955;-48
2022/08/14 12:52:30;;;;;;;;;;;;;;;;;;4999465;28;20105;-48
2022/08/14 12:54:56;;;;;;;;;;;;;;;;;;5004667;28;20055;-48
2022/08/14 12:57:23;;;;;;;;;;;;;;;;;;5009662;28;20499;-48
2022/08/14 12:59:48;;;;;;;;;;;;;;;;;;5003139;28;20284;-49
2022/08/14 13:02:14;;;;;;;;;;;;;;;;;;5003421;28;19959;-47
2022/08/14 13:04:41;;;;;;;;;;;;;;;;;;5006402;28;19962;-47
2022/08/14 13:07:07;;;;;;;;;;;;;;;;;;5004662;28;19955;-48
2022/08/14 13:09:33;;;;;;;;;;;;;;;;;;5001452;28;20303;-47
2022/08/14 13:11:59;;;;;;;;;;;;;;;;;;5005900;28;19951;-48
2022/08/14 13:14:25;;;;;;;;;;;;;;;;;;5008563;28;19959;-48
2022/08/14 13:16:51;;;;;;;;;;;;;;;;;;5010851;28;20090;-48
2022/08/14 13:19:17;;;;;;;;;;;;;;;;;;5000740;28;20086;-48
2022/08/14 13:21:44;;;;;;;;;;;;;;;;;;5001260;28;19974;-48
2022/08/14 13:24:11;;;;;;;463.55;416.75;;;;;;;;;;5001621;28;20316;-48
2022/08/14 13:26:38;;;;;;;479.35;427.13;;;;;;;;;;5002631;28;20214;-48
2022/08/14 13:29:05;;;;;;;476.83;427.40;;;;;;;;;;5002021;28;20216;-48
2022/08/14 13:31:32;;;;;;;464.08;414.40;;;;;;;;;;4997285;28;20251;-47
2022/08/14 13:33:59;;;;;;;444.83;398.67;;;;;;;;;;5005149;28;20746;-48
2022/08/14 13:36:26;;;;;;;474.17;424.10;;;;;;;;;;5008828;28;20181;-48
2022/08/14 13:38:52;;;;;;;456.83;409.17;;;;;;;;;;5009957;28;20257;-47
2022/08/14 13:41:22;;;;;;;463.42;414.15;;;;;;;;;;5010214;28;20407;-48
2022/08/14 13:43:49;;;;;;;454.23;407.50;;;;;;;;;;5013002;28;20222;-48
2022/08/14 13:46:18;;;;;;;489.27;438.27;;;;;;;;;;5012011;28;20289;-48
2022/08/14 13:48:44;;;;;;;513.45;457.30;;;;;;;;;;5002740;28;20251;-47
2022/08/14 13:51:11;;;;;;;493.10;443.88;;;;;;;;;;5009951;28;20211;-48
2022/08/14 13:53:43;;;;;;;483.45;436.00;;;;;;;;;;5012147;28;20216;-48
2022/08/14 13:56:10;;;;;;;512.22;458.02;;;;;;;;;;5005721;28;20240;-48
2022/08/14 13:58:36;;;;;;;491.52;441.33;;;;;;;;;;5004525;28;20731;-49
2022/08/14 14:01:05;;;;;;;469.58;422.80;;;;;;;;;;5016314;28;20220;-48
2022/08/14 14:03:33;;;;;;;479.80;432.30;;;;;;;;;;5011453;28;20200;-47
2022/08/14 14:05:59;;;;;;;488.15;440.30;;;;;;;;;;5012899;28;20565;-49
2022/08/14 14:08:25;;;;;;;502.45;452.45;;;;;;;;;;4991027;28;20615;-49
2022/08/14 14:10:52;;;;;;;499.48;449.30;;;;;;;;;;4989621;28;20217;-49
2022/08/14 14:13:20;;;;;;;521.58;472.48;;;;;;;;;;4990340;28;20593;-49
2022/08/14 14:15:47;;;;;;;535.80;483.27;;;;;;;;;;4988745;28;20359;-49
2022/08/14 14:18:13;;;;;;;533.40;479.85;;;;;;;;;;4995874;28;20260;-49
2022/08/14 14:20:43;;;;;;;511.98;463.08;;;;;;;;;;4992584;28;20240;-50
2022/08/14 14:23:12;;;;;;;502.77;457.27;;;;;;;;;;4993318;28;20724;-50
2022/08/14 14:25:41;;;;;;;549.45;492.17;;;;;;;;;;4993818;28;20334;-48
2022/08/14 14:28:07;;;;;;;544.20;486.20;;;;;;;;;;4989114;28;20218;-49
2022/08/14 14:30:33;;;;;;;531.58;477.88;;;;;;;;;;4982734;28;20199;-49
2022/08/14 14:32:59;;;;;;;542.13;490.98;;;;;;;;;;4992441;28;20213;-49
2022/08/14 14:35:28;;;;;;;530.20;482.52;;;;;;;;;;4987871;28;20322;-49
2022/08/14 14:37:54;;;;;;;552.90;502.30;;;;;;;;;;4988446;28;20216;-50
2022/08/14 14:40:20;;;;;;;583.67;527.20;;;;;;;;;;4980714;28;20217;-49
2022/08/14 14:42:48;;;;;;;568.78;517.15;;;;;;;;;;4988049;28;20296;-49
2022/08/14 14:45:16;;;;;;;587.63;534.65;;;;;;;;;;4980072;28;20267;-50
2022/08/14 14:47:46;;;;;;;596.20;543.63;;;;;;;;;;4985302;28;20708;-49
2022/08/14 14:50:13;;;;;;;592.13;540.78;;;;;;;;;;4985299;28;20221;-49
2022/08/14 14:52:40;;;;;;;583.08;532.00;;;;;;;;;;4988016;28;20823;-50
2022/08/14 14:55:07;;;;;;;600.67;546.50;;;;;;;;;;4987349;28;20233;-49